sensor_id;sensor_type;location;lat;lon;timestamp;pressure;altitude;pressure_sealevel;temperature;humidity
50464;BME280;62167;38.552;-121.478;2022-09-09T00:02:19;100131.34;;;42.92;11.83
50464;BME280;62167;38.552;-121.478;2022-09-09T00:07:50;100121.59;;;42.83;13.44
50464;BME280;62167;38.552;-121.478;2022-09-09T00:10:34;100117.16;;;42.82;13.97
50464;BME280;62167;38.552;-121.478;2022-09-09T00:16:13;100108.53;;;42.57;13.31
50464;BME280;62167;38.552;-121.478;2022-09-09T00:24:34;100087.19;;;42.73;13.47
50464;BME280;62167;38.552;-121.478;2022-09-09T00:27:16;100093.25;;;42.68;13.40
50464;BME280;62167;38.552;-121.478;2022-09-09T00:29:58;100085.53;;;42.65;13.21
50464;BME280;62167;38.552;-121.478;2022-09-09T00:32:29;100087.50;;;42.54;13.31
50464;BME280;62167;38.552;-121.478;2022-09-09T00:35:44;100085.47;;;42.55;13.36
50464;BME280;62167;38.552;-121.478;2022-09-09T00:37:58;100085.03;;;42.49;14.10
50464;BME280;62167;38.552;-121.478;2022-09-09T00:40:33;100078.47;;;42.31;13.82
50464;BME280;62167;38.552;-121.478;2022-09-09T00:46:12;100078.69;;;42.04;14.35
50464;BME280;62167;38.552;-121.478;2022-09-09T00:49:01;100066.50;;;41.96;14.06
50464;BME280;62167;38.552;-121.478;2022-09-09T00:57:30;100070.06;;;41.79;15.33
50464;BME280;62167;38.552;-121.478;2022-09-09T01:00:17;100066.31;;;41.68;14.27
50464;BME280;62167;38.552;-121.478;2022-09-09T01:03:25;100072.38;;;41.70;14.57
50464;BME280;62167;38.552;-121.478;2022-09-09T01:11:51;100067.47;;;41.19;16.32
50464;BME280;62167;38.552;-121.478;2022-09-09T01:14:35;100074.69;;;41.13;15.62
50464;BME280;62167;38.552;-121.478;2022-09-09T01:28:30;100061.75;;;40.78;17.15
50464;BME280;62167;38.552;-121.478;2022-09-09T01:31:00;100067.28;;;40.67;17.27
50464;BME280;62167;38.552;-121.478;2022-09-09T01:33:28;100067.13;;;40.53;17.29
50464;BME280;62167;38.552;-121.478;2022-09-09T01:35:58;100071.31;;;40.36;18.05
50464;BME280;62167;38.552;-121.478;2022-09-09T01:38:27;100074.03;;;40.29;17.58
50464;BME280;62167;38.552;-121.478;2022-09-09T01:40:54;100077.97;;;40.21;17.94
50464;BME280;62167;38.552;-121.478;2022-09-09T01:43:22;100075.56;;;39.97;19.05
50464;BME280;62167;38.552;-121.478;2022-09-09T01:45:52;100067.03;;;39.93;19.03
50464;BME280;62167;38.552;-121.478;2022-09-09T01:48:21;100062.63;;;39.69;19.39
50464;BME280;62167;38.552;-121.478;2022-09-09T01:50:47;100061.94;;;39.53;19.53
50464;BME280;62167;38.552;-121.478;2022-09-09T01:53:16;100053.13;;;39.54;19.44
50464;BME280;62167;38.552;-121.478;2022-09-09T01:58:57;100054.13;;;39.42;19.67
50464;BME280;62167;38.552;-121.478;2022-09-09T02:03:58;100047.75;;;39.23;20.78
50464;BME280;62167;38.552;-121.478;2022-09-09T02:06:30;100057.59;;;39.13;20.97
50464;BME280;62167;38.552;-121.478;2022-09-09T02:09:02;100047.31;;;38.78;21.22
50464;BME280;62167;38.552;-121.478;2022-09-09T02:11:30;100047.94;;;38.72;21.32
50464;BME280;62167;38.552;-121.478;2022-09-09T02:14:05;100056.19;;;38.61;21.57
50464;BME280;62167;38.552;-121.478;2022-09-09T02:19:08;100051.03;;;38.44;21.65
50464;BME280;62167;38.552;-121.478;2022-09-09T02:21:39;100048.50;;;38.38;21.35
50464;BME280;62167;38.552;-121.478;2022-09-09T02:24:08;100045.44;;;38.28;21.62
50464;BME280;62167;38.552;-121.478;2022-09-09T02:26:39;100046.44;;;38.20;21.42
50464;BME280;62167;38.552;-121.478;2022-09-09T02:29:14;100051.66;;;38.02;22.05
50464;BME280;62167;38.552;-121.478;2022-09-09T02:31:42;100054.72;;;37.77;21.91
50464;BME280;62167;38.552;-121.478;2022-09-09T02:34:11;100054.53;;;37.70;21.98
50464;BME280;62167;38.552;-121.478;2022-09-09T02:36:40;100050.53;;;37.55;22.79
50464;BME280;62167;38.552;-121.478;2022-09-09T02:39:10;100045.91;;;37.31;22.67
50464;BME280;62167;38.552;-121.478;2022-09-09T02:41:38;100049.28;;;37.21;22.76
50464;BME280;62167;38.552;-121.478;2022-09-09T02:44:10;100047.72;;;37.08;22.89
50464;BME280;62167;38.552;-121.478;2022-09-09T02:54:33;100045.78;;;36.68;22.86
50464;BME280;62167;38.552;-121.478;2022-09-09T02:57:11;100048.41;;;36.61;22.78
50464;BME280;62167;38.552;-121.478;2022-09-09T02:59:39;100045.88;;;36.44;22.95
50464;BME280;62167;38.552;-121.478;2022-09-09T03:02:05;100046.97;;;36.27;23.29
50464;BME280;62167;38.552;-121.478;2022-09-09T03:04:32;100045.69;;;36.24;23.19
50464;BME280;62167;38.552;-121.478;2022-09-09T03:06:59;100047.09;;;36.18;22.60
50464;BME280;62167;38.552;-121.478;2022-09-09T03:09:25;100049.94;;;36.06;23.15
50464;BME280;62167;38.552;-121.478;2022-09-09T03:11:54;100052.06;;;35.97;23.12
50464;BME280;62167;38.552;-121.478;2022-09-09T03:14:21;100049.25;;;35.84;23.35
50464;BME280;62167;38.552;-121.478;2022-09-09T03:16:51;100059.19;;;35.70;23.20
50464;BME280;62167;38.552;-121.478;2022-09-09T03:19:17;100051.47;;;35.67;23.32
50464;BME280;62167;38.552;-121.478;2022-09-09T03:21:45;100057.66;;;35.60;23.35
50464;BME280;62167;38.552;-121.478;2022-09-09T03:24:12;100058.59;;;35.52;23.64
50464;BME280;62167;38.552;-121.478;2022-09-09T03:26:38;100054.84;;;35.48;23.84
50464;BME280;62167;38.552;-121.478;2022-09-09T03:29:07;100061.16;;;35.45;24.00
50464;BME280;62167;38.552;-121.478;2022-09-09T03:31:34;100069.28;;;35.38;23.81
50464;BME280;62167;38.552;-121.478;2022-09-09T03:34:01;100063.31;;;35.27;24.62
50464;BME280;62167;38.552;-121.478;2022-09-09T03:36:28;100065.53;;;35.21;24.57
50464;BME280;62167;38.552;-121.478;2022-09-09T03:38:55;100061.09;;;35.08;24.92
50464;BME280;62167;38.552;-121.478;2022-09-09T03:41:25;100066.47;;;34.92;26.07
50464;BME280;62167;38.552;-121.478;2022-09-09T03:43:52;100069.84;;;34.85;25.15
50464;BME280;62167;38.552;-121.478;2022-09-09T03:46:20;100077.50;;;34.76;28.48
50464;BME280;62167;38.552;-121.478;2022-09-09T03:48:46;100069.31;;;34.71;25.99
50464;BME280;62167;38.552;-121.478;2022-09-09T03:51:13;100065.78;;;34.62;24.77
50464;BME280;62167;38.552;-121.478;2022-09-09T03:53:39;100078.34;;;34.56;26.26
50464;BME280;62167;38.552;-121.478;2022-09-09T03:56:06;100075.44;;;34.52;25.99
50464;BME280;62167;38.552;-121.478;2022-09-09T03:58:34;100079.94;;;34.45;26.79
50464;BME280;62167;38.552;-121.478;2022-09-09T04:01:03;100081.47;;;34.33;26.50
50464;BME280;62167;38.552;-121.478;2022-09-09T04:03:30;100069.38;;;34.21;26.80
50464;BME280;62167;38.552;-121.478;2022-09-09T04:05:59;100075.97;;;33.95;25.50
50464;BME280;62167;38.552;-121.478;2022-09-09T04:08:26;100080.91;;;33.90;25.87
50464;BME280;62167;38.552;-121.478;2022-09-09T04:10:53;100081.63;;;33.78;25.71
50464;BME280;62167;38.552;-121.478;2022-09-09T04:13:24;100083.81;;;33.72;26.13
50464;BME280;62167;38.552;-121.478;2022-09-09T04:15:52;100080.69;;;33.65;25.59
50464;BME280;62167;38.552;-121.478;2022-09-09T04:18:20;100088.31;;;33.56;25.12
50464;BME280;62167;38.552;-121.478;2022-09-09T04:20:47;100085.19;;;33.58;26.39
50464;BME280;62167;38.552;-121.478;2022-09-09T04:23:14;100089.97;;;33.57;25.54
50464;BME280;62167;38.552;-121.478;2022-09-09T04:25:49;100088.34;;;33.47;27.76
50464;BME280;62167;38.552;-121.478;2022-09-09T04:28:17;100085.22;;;33.40;27.35
50464;BME280;62167;38.552;-121.478;2022-09-09T04:30:44;100095.63;;;33.31;27.89
50464;BME280;62167;38.552;-121.478;2022-09-09T04:33:12;100089.56;;;33.20;27.61
50464;BME280;62167;38.552;-121.478;2022-09-09T04:35:39;100086.97;;;33.15;28.70
50464;BME280;62167;38.552;-121.478;2022-09-09T04:38:09;100083.38;;;33.06;29.85
50464;BME280;62167;38.552;-121.478;2022-09-09T04:40:35;100086.97;;;32.98;29.23
50464;BME280;62167;38.552;-121.478;2022-09-09T04:43:03;100088.94;;;32.89;29.14
50464;BME280;62167;38.552;-121.478;2022-09-09T04:45:33;100083.84;;;32.82;28.39
50464;BME280;62167;38.552;-121.478;2022-09-09T04:47:59;100090.25;;;32.74;28.52
50464;BME280;62167;38.552;-121.478;2022-09-09T04:50:25;100083.38;;;32.63;28.52
50464;BME280;62167;38.552;-121.478;2022-09-09T04:52:52;100088.13;;;32.53;29.47
50464;BME280;62167;38.552;-121.478;2022-09-09T04:55:18;100086.19;;;32.45;29.59
50464;BME280;62167;38.552;-121.478;2022-09-09T04:57:44;100089.25;;;32.35;28.74
50464;BME280;62167;38.552;-121.478;2022-09-09T05:00:11;100090.56;;;32.29;29.42
50464;BME280;62167;38.552;-121.478;2022-09-09T05:02:39;100088.41;;;32.17;29.61
50464;BME280;62167;38.552;-121.478;2022-09-09T05:05:06;100087.56;;;32.08;30.61
50464;BME280;62167;38.552;-121.478;2022-09-09T05:07:32;100081.19;;;31.99;30.32
50464;BME280;62167;38.552;-121.478;2022-09-09T05:09:58;100075.59;;;31.90;29.78
50464;BME280;62167;38.552;-121.478;2022-09-09T05:12:25;100072.13;;;31.85;29.80
50464;BME280;62167;38.552;-121.478;2022-09-09T05:14:54;100075.03;;;31.80;30.09
50464;BME280;62167;38.552;-121.478;2022-09-09T05:17:20;100077.78;;;31.71;29.82
50464;BME280;62167;38.552;-121.478;2022-09-09T05:19:46;100072.38;;;31.66;30.96
50464;BME280;62167;38.552;-121.478;2022-09-09T05:22:13;100076.44;;;31.60;30.23
50464;BME280;62167;38.552;-121.478;2022-09-09T05:24:39;100086.72;;;31.50;31.23
50464;BME280;62167;38.552;-121.478;2022-09-09T05:27:05;100078.84;;;31.44;31.08
50464;BME280;62167;38.552;-121.478;2022-09-09T05:29:32;100087.97;;;31.36;30.27
50464;BME280;62167;38.552;-121.478;2022-09-09T05:32:01;100085.41;;;31.25;30.92
50464;BME280;62167;38.552;-121.478;2022-09-09T05:34:27;100082.59;;;31.17;31.83
50464;BME280;62167;38.552;-121.478;2022-09-09T05:36:54;100078.28;;;31.11;31.26
50464;BME280;62167;38.552;-121.478;2022-09-09T05:39:21;100077.28;;;31.07;32.14
50464;BME280;62167;38.552;-121.478;2022-09-09T05:41:47;100080.53;;;31.00;31.48
50464;BME280;62167;38.552;-121.478;2022-09-09T05:44:13;100072.94;;;30.92;32.23
50464;BME280;62167;38.552;-121.478;2022-09-09T05:46:40;100070.94;;;30.84;32.38
50464;BME280;62167;38.552;-121.478;2022-09-09T05:49:06;100064.16;;;30.76;31.66
50464;BME280;62167;38.552;-121.478;2022-09-09T05:51:33;100066.78;;;30.72;31.85
50464;BME280;62167;38.552;-121.478;2022-09-09T05:54:00;100064.50;;;30.61;32.23
50464;BME280;62167;38.552;-121.478;2022-09-09T05:56:28;100067.25;;;30.52;32.31
50464;BME280;62167;38.552;-121.478;2022-09-09T05:58:55;100065.69;;;30.46;33.19
50464;BME280;62167;38.552;-121.478;2022-09-09T06:01:23;100064.72;;;30.42;33.01
50464;BME280;62167;38.552;-121.478;2022-09-09T06:03:50;100064.28;;;30.35;33.01
50464;BME280;62167;38.552;-121.478;2022-09-09T06:06:22;100063.91;;;30.28;33.09
50464;BME280;62167;38.552;-121.478;2022-09-09T06:08:51;100061.88;;;30.19;33.04
50464;BME280;62167;38.552;-121.478;2022-09-09T06:11:22;100060.03;;;30.15;33.16
50464;BME280;62167;38.552;-121.478;2022-09-09T06:13:49;100064.34;;;30.07;33.34
50464;BME280;62167;38.552;-121.478;2022-09-09T06:16:24;100064.75;;;30.01;33.59
50464;BME280;62167;38.552;-121.478;2022-09-09T06:18:52;100078.88;;;29.90;33.40
50464;BME280;62167;38.552;-121.478;2022-09-09T06:21:21;100081.25;;;29.83;32.85
50464;BME280;62167;38.552;-121.478;2022-09-09T06:23:48;100080.84;;;29.76;32.18
50464;BME280;62167;38.552;-121.478;2022-09-09T06:28:45;100071.50;;;29.72;32.00
50464;BME280;62167;38.552;-121.478;2022-09-09T06:31:15;100060.38;;;29.58;31.98
50464;BME280;62167;38.552;-121.478;2022-09-09T06:33:48;100051.91;;;29.50;32.35
50464;BME280;62167;38.552;-121.478;2022-09-09T06:36:26;100061.59;;;29.52;32.33
50464;BME280;62167;38.552;-121.478;2022-09-09T06:38:52;100062.50;;;29.47;32.64
50464;BME280;62167;38.552;-121.478;2022-09-09T06:41:20;100058.47;;;29.40;32.44
50464;BME280;62167;38.552;-121.478;2022-09-09T06:43:48;100064.97;;;29.35;32.52
50464;BME280;62167;38.552;-121.478;2022-09-09T06:46:22;100067.84;;;29.30;32.63
50464;BME280;62167;38.552;-121.478;2022-09-09T06:48:49;100060.94;;;29.28;32.72
50464;BME280;62167;38.552;-121.478;2022-09-09T06:51:18;100058.16;;;29.14;32.32
50464;BME280;62167;38.552;-121.478;2022-09-09T06:53:45;100056.50;;;29.13;32.81
50464;BME280;62167;38.552;-121.478;2022-09-09T06:56:23;100064.59;;;29.09;32.87
50464;BME280;62167;38.552;-121.478;2022-09-09T06:58:52;100066.97;;;29.02;32.97
50464;BME280;62167;38.552;-121.478;2022-09-09T07:01:23;100064.28;;;28.97;33.33
50464;BME280;62167;38.552;-121.478;2022-09-09T07:03:52;100060.44;;;28.93;33.38
50464;BME280;62167;38.552;-121.478;2022-09-09T07:08:54;100060.00;;;28.86;34.43
50464;BME280;62167;38.552;-121.478;2022-09-09T07:11:22;100058.47;;;28.80;34.22
50464;BME280;62167;38.552;-121.478;2022-09-09T07:13:49;100065.72;;;28.76;33.43
50464;BME280;62167;38.552;-121.478;2022-09-09T07:16:17;100057.19;;;28.72;34.19
50464;BME280;62167;38.552;-121.478;2022-09-09T07:18:45;100065.16;;;28.60;33.58
50464;BME280;62167;38.552;-121.478;2022-09-09T07:21:12;100059.91;;;28.58;33.84
50464;BME280;62167;38.552;-121.478;2022-09-09T07:23:40;100055.88;;;28.51;33.13
50464;BME280;62167;38.552;-121.478;2022-09-09T07:26:11;100067.03;;;28.46;33.82
50464;BME280;62167;38.552;-121.478;2022-09-09T07:28:39;100066.66;;;28.33;33.91
50464;BME280;62167;38.552;-121.478;2022-09-09T07:31:08;100068.06;;;28.31;32.67
50464;BME280;62167;38.552;-121.478;2022-09-09T07:33:39;100083.03;;;28.30;33.27
50464;BME280;62167;38.552;-121.478;2022-09-09T07:36:16;100075.00;;;28.28;33.97
50464;BME280;62167;38.552;-121.478;2022-09-09T07:38:45;100068.44;;;28.24;33.22
50464;BME280;62167;38.552;-121.478;2022-09-09T07:41:23;100073.44;;;28.22;33.61
50464;BME280;62167;38.552;-121.478;2022-09-09T07:43:51;100072.38;;;28.18;33.44
50464;BME280;62167;38.552;-121.478;2022-09-09T07:46:20;100068.59;;;28.14;34.55
50464;BME280;62167;38.552;-121.478;2022-09-09T07:48:52;100062.31;;;28.08;33.81
50464;BME280;62167;38.552;-121.478;2022-09-09T07:51:25;100064.91;;;28.00;33.78
50464;BME280;62167;38.552;-121.478;2022-09-09T07:53:57;100059.13;;;27.96;34.58
50464;BME280;62167;38.552;-121.478;2022-09-09T07:56:25;100054.22;;;27.93;34.81
50464;BME280;62167;38.552;-121.478;2022-09-09T07:58:54;100053.66;;;27.91;34.83
50464;BME280;62167;38.552;-121.478;2022-09-09T08:04:02;100053.78;;;27.81;34.34
50464;BME280;62167;38.552;-121.478;2022-09-09T08:06:38;100052.72;;;27.77;34.57
50464;BME280;62167;38.552;-121.478;2022-09-09T08:09:06;100047.25;;;27.72;35.75
50464;BME280;62167;38.552;-121.478;2022-09-09T08:11:34;100046.47;;;27.66;35.26
50464;BME280;62167;38.552;-121.478;2022-09-09T08:14:02;100043.78;;;27.61;35.31
50464;BME280;62167;38.552;-121.478;2022-09-09T08:16:32;100039.41;;;27.55;35.59
50464;BME280;62167;38.552;-121.478;2022-09-09T08:18:59;100032.81;;;27.51;36.05
50464;BME280;62167;38.552;-121.478;2022-09-09T08:21:30;100035.66;;;27.46;36.28
50464;BME280;62167;38.552;-121.478;2022-09-09T08:23:59;100023.25;;;27.43;35.89
50464;BME280;62167;38.552;-121.478;2022-09-09T08:26:28;100031.59;;;27.38;36.67
50464;BME280;62167;38.552;-121.478;2022-09-09T08:28:56;100033.00;;;27.35;36.40
50464;BME280;62167;38.552;-121.478;2022-09-09T08:31:28;100024.75;;;27.30;36.19
50464;BME280;62167;38.552;-121.478;2022-09-09T08:33:56;100023.41;;;27.28;36.36
50464;BME280;62167;38.552;-121.478;2022-09-09T08:36:25;100020.72;;;27.23;36.20
50464;BME280;62167;38.552;-121.478;2022-09-09T08:38:53;100012.47;;;27.18;36.88
50464;BME280;62167;38.552;-121.478;2022-09-09T08:44:43;100010.88;;;27.06;37.39
50464;BME280;62167;38.552;-121.478;2022-09-09T08:55:53;99997.56;;;26.84;37.52
50464;BME280;62167;38.552;-121.478;2022-09-09T08:58:26;99994.31;;;26.77;37.09
50464;BME280;62167;38.552;-121.478;2022-09-09T09:03:43;99989.66;;;26.73;36.94
50464;BME280;62167;38.552;-121.478;2022-09-09T09:12:06;99981.44;;;26.68;36.49
50464;BME280;62167;38.552;-121.478;2022-09-09T09:14:36;99975.59;;;26.69;36.26
50464;BME280;62167;38.552;-121.478;2022-09-09T09:17:11;99978.38;;;26.69;35.33
50464;BME280;62167;38.552;-121.478;2022-09-09T09:19:40;99969.78;;;26.71;35.33
50464;BME280;62167;38.552;-121.478;2022-09-09T09:22:20;99970.91;;;26.70;35.82
50464;BME280;62167;38.552;-121.478;2022-09-09T09:24:52;99969.25;;;26.69;35.88
50464;BME280;62167;38.552;-121.478;2022-09-09T09:27:32;99964.84;;;26.68;36.13
50464;BME280;62167;38.552;-121.478;2022-09-09T09:30:19;99966.00;;;26.61;35.65
50464;BME280;62167;38.552;-121.478;2022-09-09T09:35:19;99971.28;;;26.58;36.70
50464;BME280;62167;38.552;-121.478;2022-09-09T09:37:45;99970.22;;;26.54;36.17
50464;BME280;62167;38.552;-121.478;2022-09-09T09:40:20;99965.00;;;26.52;36.31
50464;BME280;62167;38.552;-121.478;2022-09-09T09:42:56;99966.16;;;26.46;36.18
50464;BME280;62167;38.552;-121.478;2022-09-09T09:45:33;99969.50;;;26.38;36.19
50464;BME280;62167;38.552;-121.478;2022-09-09T09:48:09;99959.31;;;26.33;36.11
50464;BME280;62167;38.552;-121.478;2022-09-09T09:50:48;99948.59;;;26.27;36.16
50464;BME280;62167;38.552;-121.478;2022-09-09T09:53:27;99967.47;;;26.14;36.50
50464;BME280;62167;38.552;-121.478;2022-09-09T09:56:03;99970.47;;;26.18;36.47
50464;BME280;62167;38.552;-121.478;2022-09-09T09:58:35;99965.25;;;26.17;37.37
50464;BME280;62167;38.552;-121.478;2022-09-09T10:01:04;99961.94;;;26.14;37.00
50464;BME280;62167;38.552;-121.478;2022-09-09T10:03:33;99960.03;;;26.10;36.86
50464;BME280;62167;38.552;-121.478;2022-09-09T10:06:05;99960.88;;;26.05;37.12
50464;BME280;62167;38.552;-121.478;2022-09-09T10:08:34;99962.00;;;26.04;37.70
50464;BME280;62167;38.552;-121.478;2022-09-09T10:14:21;99957.38;;;25.95;37.86
50464;BME280;62167;38.552;-121.478;2022-09-09T10:19:32;99958.81;;;25.87;37.71
50464;BME280;62167;38.552;-121.478;2022-09-09T10:22:21;99959.38;;;25.84;38.09
50464;BME280;62167;38.552;-121.478;2022-09-09T10:25:01;99951.13;;;25.79;37.71
50464;BME280;62167;38.552;-121.478;2022-09-09T10:30:56;99932.41;;;25.71;37.75
50464;BME280;62167;38.552;-121.478;2022-09-09T10:38:18;99950.66;;;25.61;38.20
50464;BME280;62167;38.552;-121.478;2022-09-09T11:02:41;99937.06;;;25.21;40.02
50464;BME280;62167;38.552;-121.478;2022-09-09T11:05:20;99940.94;;;25.20;40.59
50464;BME280;62167;38.552;-121.478;2022-09-09T11:08:17;99930.47;;;25.12;40.56
50464;BME280;62167;38.552;-121.478;2022-09-09T11:10:52;99936.00;;;25.06;40.08
50464;BME280;62167;38.552;-121.478;2022-09-09T11:13:52;99928.53;;;25.02;40.41
50464;BME280;62167;38.552;-121.478;2022-09-09T11:19:44;99921.13;;;24.97;39.65
50464;BME280;62167;38.552;-121.478;2022-09-09T11:25:40;99921.41;;;24.96;37.51
50464;BME280;62167;38.552;-121.478;2022-09-09T11:37:58;99909.84;;;24.83;38.55
50464;BME280;62167;38.552;-121.478;2022-09-09T11:40:30;99908.22;;;24.82;38.98
50464;BME280;62167;38.552;-121.478;2022-09-09T11:43:12;99910.72;;;24.79;39.18
50464;BME280;62167;38.552;-121.478;2022-09-09T11:45:40;99904.13;;;24.75;38.91
50464;BME280;62167;38.552;-121.478;2022-09-09T11:53:31;99904.41;;;24.63;38.90
50464;BME280;62167;38.552;-121.478;2022-09-09T11:56:12;99898.34;;;24.61;39.44
50464;BME280;62167;38.552;-121.478;2022-09-09T11:58:54;99905.53;;;24.52;38.65
50464;BME280;62167;38.552;-121.478;2022-09-09T12:01:44;99902.53;;;24.48;39.93
50464;BME280;62167;38.552;-121.478;2022-09-09T12:04:28;99902.25;;;24.45;40.33
50464;BME280;62167;38.552;-121.478;2022-09-09T12:07:01;99902.47;;;24.33;39.42
50464;BME280;62167;38.552;-121.478;2022-09-09T12:09:42;99896.16;;;24.27;40.22
50464;BME280;62167;38.552;-121.478;2022-09-09T12:17:20;99887.66;;;24.19;40.16
50464;BME280;62167;38.552;-121.478;2022-09-09T12:19:48;99893.97;;;24.09;40.31
50464;BME280;62167;38.552;-121.478;2022-09-09T12:22:33;99876.63;;;24.03;40.27
50464;BME280;62167;38.552;-121.478;2022-09-09T12:33:46;99877.72;;;23.87;41.28
50464;BME280;62167;38.552;-121.478;2022-09-09T12:36:29;99878.00;;;23.86;41.07
50464;BME280;62167;38.552;-121.478;2022-09-09T12:39:10;99878.28;;;23.79;41.44
50464;BME280;62167;38.552;-121.478;2022-09-09T12:41:53;99889.00;;;23.75;41.24
50464;BME280;62167;38.552;-121.478;2022-09-09T12:44:26;99887.88;;;23.71;41.25
50464;BME280;62167;38.552;-121.478;2022-09-09T12:46:59;99890.63;;;23.71;41.40
50464;BME280;62167;38.552;-121.478;2022-09-09T12:49:32;99894.75;;;23.69;42.50
50464;BME280;62167;38.552;-121.478;2022-09-09T12:52:08;99891.19;;;23.63;42.40
50464;BME280;62167;38.552;-121.478;2022-09-09T12:54:44;99893.59;;;23.49;42.40
50464;BME280;62167;38.552;-121.478;2022-09-09T12:57:16;99885.06;;;23.51;43.24
50464;BME280;62167;38.552;-121.478;2022-09-09T12:59:44;99885.34;;;23.49;43.08
50464;BME280;62167;38.552;-121.478;2022-09-09T13:02:25;99893.56;;;23.44;43.40
50464;BME280;62167;38.552;-121.478;2022-09-09T13:04:52;99886.94;;;23.35;43.17
50464;BME280;62167;38.552;-121.478;2022-09-09T13:07:21;99889.16;;;23.33;43.29
50464;BME280;62167;38.552;-121.478;2022-09-09T13:09:48;99883.09;;;23.31;43.53
50464;BME280;62167;38.552;-121.478;2022-09-09T13:12:20;99877.59;;;23.31;43.69
50464;BME280;62167;38.552;-121.478;2022-09-09T13:14:51;99874.56;;;23.22;43.81
50464;BME280;62167;38.552;-121.478;2022-09-09T13:17:23;99880.03;;;23.22;44.07
50464;BME280;62167;38.552;-121.478;2022-09-09T13:19:51;99886.06;;;23.14;44.09
50464;BME280;62167;38.552;-121.478;2022-09-09T13:22:31;99894.28;;;23.14;44.89
50464;BME280;62167;38.552;-121.478;2022-09-09T13:25:05;99887.44;;;23.17;45.09
50464;BME280;62167;38.552;-121.478;2022-09-09T13:27:41;99895.13;;;23.15;45.37
50464;BME280;62167;38.552;-121.478;2022-09-09T13:30:37;99898.16;;;23.13;45.00
50464;BME280;62167;38.552;-121.478;2022-09-09T13:38:25;99882.75;;;23.07;46.03
50464;BME280;62167;38.552;-121.478;2022-09-09T13:40:55;99885.16;;;22.98;45.82
50464;BME280;62167;38.552;-121.478;2022-09-09T13:43:24;99883.25;;;22.99;45.54
50464;BME280;62167;38.552;-121.478;2022-09-09T13:46:03;99880.19;;;22.95;45.54
50464;BME280;62167;38.552;-121.478;2022-09-09T13:48:30;99886.53;;;23.01;46.36
50464;BME280;62167;38.552;-121.478;2022-09-09T13:51:00;99900.03;;;23.02;46.41
50464;BME280;62167;38.552;-121.478;2022-09-09T13:53:26;99909.38;;;23.01;46.61
50464;BME280;62167;38.552;-121.478;2022-09-09T13:55:53;99908.78;;;22.99;46.86
50464;BME280;62167;38.552;-121.478;2022-09-09T13:58:20;99907.94;;;22.94;46.75
50464;BME280;62167;38.552;-121.478;2022-09-09T14:00:47;99910.91;;;22.87;47.04
50464;BME280;62167;38.552;-121.478;2022-09-09T14:03:14;99909.88;;;22.93;46.52
50464;BME280;62167;38.552;-121.478;2022-09-09T14:05:40;99914.28;;;22.99;45.98
50464;BME280;62167;38.552;-121.478;2022-09-09T14:08:11;99910.72;;;22.99;45.85
50464;BME280;62167;38.552;-121.478;2022-09-09T14:10:40;99912.63;;;22.98;45.84
50464;BME280;62167;38.552;-121.478;2022-09-09T14:13:07;99910.72;;;22.99;45.98
50464;BME280;62167;38.552;-121.478;2022-09-09T14:15:33;99914.59;;;23.03;45.47
50464;BME280;62167;38.552;-121.478;2022-09-09T14:18:00;99920.13;;;23.13;45.41
50464;BME280;62167;38.552;-121.478;2022-09-09T14:20:26;99909.69;;;23.15;45.28
50464;BME280;62167;38.552;-121.478;2022-09-09T14:22:52;99917.69;;;23.17;45.54
50464;BME280;62167;38.552;-121.478;2022-09-09T14:25:19;99916.84;;;23.21;45.04
50464;BME280;62167;38.552;-121.478;2022-09-09T14:27:45;99910.81;;;23.24;44.99
50464;BME280;62167;38.552;-121.478;2022-09-09T14:30:11;99912.22;;;23.27;45.05
50464;BME280;62167;38.552;-121.478;2022-09-09T14:32:38;99912.25;;;23.32;44.72
50464;BME280;62167;38.552;-121.478;2022-09-09T14:35:04;99920.75;;;23.36;45.02
50464;BME280;62167;38.552;-121.478;2022-09-09T14:37:30;99923.81;;;23.39;44.93
50464;BME280;62167;38.552;-121.478;2022-09-09T14:39:57;99919.13;;;23.40;45.44
50464;BME280;62167;38.552;-121.478;2022-09-09T14:42:23;99917.19;;;23.40;45.39
50464;BME280;62167;38.552;-121.478;2022-09-09T14:44:50;99918.84;;;23.41;45.81
50464;BME280;62167;38.552;-121.478;2022-09-09T14:47:16;99926.03;;;23.47;45.82
50464;BME280;62167;38.552;-121.478;2022-09-09T14:49:42;99922.72;;;23.50;45.25
50464;BME280;62167;38.552;-121.478;2022-09-09T14:52:09;99937.28;;;23.51;46.23
50464;BME280;62167;38.552;-121.478;2022-09-09T14:54:35;99933.75;;;23.55;46.57
50464;BME280;62167;38.552;-121.478;2022-09-09T14:57:01;99932.63;;;23.56;46.24
50464;BME280;62167;38.552;-121.478;2022-09-09T14:59:28;99940.34;;;23.60;46.25
50464;BME280;62167;38.552;-121.478;2022-09-09T15:01:54;99941.50;;;23.64;46.51
50464;BME280;62167;38.552;-121.478;2022-09-09T15:04:20;99943.16;;;23.70;47.87
50464;BME280;62167;38.552;-121.478;2022-09-09T15:06:47;99940.72;;;23.73;47.48
50464;BME280;62167;38.552;-121.478;2022-09-09T15:09:15;99948.97;;;23.78;47.05
50464;BME280;62167;38.552;-121.478;2022-09-09T15:11:41;99950.09;;;23.83;48.18
50464;BME280;62167;38.552;-121.478;2022-09-09T15:14:09;99950.09;;;23.88;48.09
50464;BME280;62167;38.552;-121.478;2022-09-09T15:16:38;99951.47;;;23.95;48.12
50464;BME280;62167;38.552;-121.478;2022-09-09T15:19:05;99952.88;;;23.98;48.97
50464;BME280;62167;38.552;-121.478;2022-09-09T15:21:33;99952.88;;;24.03;50.24
50464;BME280;62167;38.552;-121.478;2022-09-09T15:24:00;99941.88;;;24.08;49.10